sensor_id;sensor_type;location;lat;lon;timestamp;pressure;altitude;pressure_sealevel;temperature;humidity
71194;BME280;58903;47.210;8.618;2023-06-10T00:01:31;93779.38;;;30.30;31.96
71194;BME280;58903;47.210;8.618;2023-06-10T00:04:06;93783.47;;;30.29;31.42
71194;BME280;58903;47.210;8.618;2023-06-10T00:06:47;93785.50;;;30.29;31.96
71194;BME280;58903;47.210;8.618;2023-06-10T00:09:16;93786.59;;;30.26;32.28
71194;BME280;58903;47.210;8.618;2023-06-10T00:11:46;93779.03;;;30.26;32.06
71194;BME280;58903;47.210;8.618;2023-06-10T00:14:36;93785.88;;;30.25;32.26
71194;BME280;58903;47.210;8.618;2023-06-10T00:17:19;93796.25;;;30.25;31.69
71194;BME280;58903;47.210;8.618;2023-06-10T00:19:49;93785.16;;;30.25;32.01
71194;BME280;58903;47.210;8.618;2023-06-10T00:22:52;93794.22;;;30.25;31.28
71194;BME280;58903;47.210;8.618;2023-06-10T00:25:25;93794.94;;;30.26;32.35
71194;BME280;58903;47.210;8.618;2023-06-10T00:28:03;93786.44;;;30.24;32.16
71194;BME280;58903;47.210;8.618;2023-06-10T00:30:39;93789.75;;;30.22;32.03
71194;BME280;58903;47.210;8.618;2023-06-10T00:33:16;93780.13;;;30.23;31.71
71194;BME280;58903;47.210;8.618;2023-06-10T00:35:51;93783.47;;;30.22;31.95
71194;BME280;58903;47.210;8.618;2023-06-10T00:38:22;93785.50;;;30.21;31.57
71194;BME280;58903;47.210;8.618;2023-06-10T00:41:04;93777.19;;;30.21;32.53
71194;BME280;58903;47.210;8.618;2023-06-10T00:43:32;93786.06;;;30.20;32.17
71194;BME280;58903;47.210;8.618;2023-06-10T00:46:01;93777.19;;;30.21;32.29
71194;BME280;58903;47.210;8.618;2023-06-10T00:48:30;93779.94;;;30.21;32.15
71194;BME280;58903;47.210;8.618;2023-06-10T00:50:56;93784.22;;;30.22;31.53
71194;BME280;58903;47.210;8.618;2023-06-10T00:53:25;93785.50;;;30.21;31.87
71194;BME280;58903;47.210;8.618;2023-06-10T00:55:51;93778.31;;;30.18;32.46
71194;BME280;58903;47.210;8.618;2023-06-10T00:58:27;93772.00;;;30.18;32.02
71194;BME280;58903;47.210;8.618;2023-06-10T01:00:53;93774.97;;;30.20;31.91
71194;BME280;58903;47.210;8.618;2023-06-10T01:03:26;93771.25;;;30.17;31.87
71194;BME280;58903;47.210;8.618;2023-06-10T01:06:02;93774.03;;;30.17;31.78
71194;BME280;58903;47.210;8.618;2023-06-10T01:08:55;93775.34;;;30.16;31.55
71194;BME280;58903;47.210;8.618;2023-06-10T01:11:35;93776.81;;;30.17;32.32
71194;BME280;58903;47.210;8.618;2023-06-10T01:14:09;93772.41;;;30.14;32.33
71194;BME280;58903;47.210;8.618;2023-06-10T01:16:37;93777.38;;;30.16;32.24
71194;BME280;58903;47.210;8.618;2023-06-10T01:19:08;93772.41;;;30.14;32.34
71194;BME280;58903;47.210;8.618;2023-06-10T01:22:09;93773.84;;;30.15;31.73
71194;BME280;58903;47.210;8.618;2023-06-10T01:24:38;93772.41;;;30.14;32.28
71194;BME280;58903;47.210;8.618;2023-06-10T01:27:30;93772.22;;;30.12;32.50
71194;BME280;58903;47.210;8.618;2023-06-10T01:30:11;93770.91;;;30.13;31.76
71194;BME280;58903;47.210;8.618;2023-06-10T01:33:14;93765.00;;;30.09;31.80
71194;BME280;58903;47.210;8.618;2023-06-10T01:35:44;93772.00;;;30.10;32.44
71194;BME280;58903;47.210;8.618;2023-06-10T01:38:21;93766.28;;;30.08;32.20
71194;BME280;58903;47.210;8.618;2023-06-10T01:40:49;93770.53;;;30.09;32.32
71194;BME280;58903;47.210;8.618;2023-06-10T01:43:45;93770.53;;;30.09;32.47
71194;BME280;58903;47.210;8.618;2023-06-10T01:46:21;93767.59;;;30.07;31.85
71194;BME280;58903;47.210;8.618;2023-06-10T01:48:47;93776.66;;;30.08;32.13
71194;BME280;58903;47.210;8.618;2023-06-10T01:51:22;93784.22;;;30.07;31.49
71194;BME280;58903;47.210;8.618;2023-06-10T01:53:56;93778.69;;;30.07;32.02
71194;BME280;58903;47.210;8.618;2023-06-10T01:56:35;93775.91;;;30.07;31.66
71194;BME280;58903;47.210;8.618;2023-06-10T01:59:13;93772.94;;;30.05;32.73
71194;BME280;58903;47.210;8.618;2023-06-10T02:04:45;93777.19;;;30.06;32.03
71194;BME280;58903;47.210;8.618;2023-06-10T02:07:13;93777.00;;;30.04;32.23
71194;BME280;58903;47.210;8.618;2023-06-10T02:09:42;93788.09;;;30.04;32.03
71194;BME280;58903;47.210;8.618;2023-06-10T02:12:08;93775.91;;;30.00;32.56
71194;BME280;58903;47.210;8.618;2023-06-10T02:14:34;93779.59;;;30.02;32.40
71194;BME280;58903;47.210;8.618;2023-06-10T02:17:08;93779.59;;;30.02;32.25
71194;BME280;58903;47.210;8.618;2023-06-10T02:19:38;93782.19;;;30.00;31.87
71194;BME280;58903;47.210;8.618;2023-06-10T02:22:23;93784.97;;;30.00;32.68
71194;BME280;58903;47.210;8.618;2023-06-10T02:24:55;93790.50;;;30.00;32.41
71194;BME280;58903;47.210;8.618;2023-06-10T02:27:27;93796.06;;;30.00;32.53
71194;BME280;58903;47.210;8.618;2023-06-10T02:29:58;93794.59;;;29.99;31.93
71194;BME280;58903;47.210;8.618;2023-06-10T02:32:30;93794.59;;;29.99;31.59
71194;BME280;58903;47.210;8.618;2023-06-10T02:35:06;93788.81;;;29.97;31.53
71194;BME280;58903;47.210;8.618;2023-06-10T02:37:42;93793.84;;;29.99;31.51
71194;BME280;58903;47.210;8.618;2023-06-10T02:40:10;93788.09;;;29.97;31.89
71194;BME280;58903;47.210;8.618;2023-06-10T02:42:43;93797.16;;;29.97;31.71
71194;BME280;58903;47.210;8.618;2023-06-10T02:45:11;93797.34;;;29.99;32.64
71194;BME280;58903;47.210;8.618;2023-06-10T02:47:38;93795.13;;;29.98;32.07
71194;BME280;58903;47.210;8.618;2023-06-10T02:50:14;93790.13;;;29.96;32.48
71194;BME280;58903;47.210;8.618;2023-06-10T02:53:01;93794.19;;;29.95;31.86
71194;BME280;58903;47.210;8.618;2023-06-10T02:55:47;93804.56;;;29.95;32.71
71194;BME280;58903;47.210;8.618;2023-06-10T02:58:16;93814.16;;;29.94;31.86
71194;BME280;58903;47.210;8.618;2023-06-10T03:01:08;93809.38;;;29.94;32.45
71194;BME280;58903;47.210;8.618;2023-06-10T03:03:39;93809.94;;;29.93;31.76
71194;BME280;58903;47.210;8.618;2023-06-10T03:06:12;93816.19;;;29.93;31.43
71194;BME280;58903;47.210;8.618;2023-06-10T03:08:48;93809.72;;;29.91;31.49
71194;BME280;58903;47.210;8.618;2023-06-10T03:11:15;93813.78;;;29.90;32.31
71194;BME280;58903;47.210;8.618;2023-06-10T03:13:53;93816.00;;;29.91;32.48
71194;BME280;58903;47.210;8.618;2023-06-10T03:16:20;93824.13;;;29.89;31.53
71194;BME280;58903;47.210;8.618;2023-06-10T03:18:53;93820.63;;;29.89;32.10
71194;BME280;58903;47.210;8.618;2023-06-10T03:21:20;93827.81;;;29.84;31.87
71194;BME280;58903;47.210;8.618;2023-06-10T03:24:16;93830.59;;;29.84;32.62
71194;BME280;58903;47.210;8.618;2023-06-10T03:26:57;93837.44;;;29.83;31.90
71194;BME280;58903;47.210;8.618;2023-06-10T03:29:24;93835.97;;;29.82;31.83
71194;BME280;58903;47.210;8.618;2023-06-10T03:32:02;93836.50;;;29.80;31.96
71194;BME280;58903;47.210;8.618;2023-06-10T03:37:40;93843.00;;;29.83;32.02
71194;BME280;58903;47.210;8.618;2023-06-10T03:40:08;93839.66;;;29.77;32.51
71194;BME280;58903;47.210;8.618;2023-06-10T03:42:47;93850.75;;;29.77;32.49
71194;BME280;58903;47.210;8.618;2023-06-10T03:45:13;93846.28;;;29.74;32.74
71194;BME280;58903;47.210;8.618;2023-06-10T03:47:40;93843.31;;;29.72;32.67
71194;BME280;58903;47.210;8.618;2023-06-10T03:50:17;93855.16;;;29.72;32.56
71194;BME280;58903;47.210;8.618;2023-06-10T03:52:58;93845.72;;;29.68;32.55
71194;BME280;58903;47.210;8.618;2023-06-10T03:55:41;93848.84;;;29.72;32.84
71194;BME280;58903;47.210;8.618;2023-06-10T03:58:21;93853.28;;;29.67;32.70
71194;BME280;58903;47.210;8.618;2023-06-10T04:00:55;93853.84;;;29.66;32.55
71194;BME280;58903;47.210;8.618;2023-06-10T04:03:41;93859.38;;;29.66;32.22
71194;BME280;58903;47.210;8.618;2023-06-10T04:06:20;93851.06;;;29.66;32.32
71194;BME280;58903;47.210;8.618;2023-06-10T04:08:49;93860.66;;;29.65;32.30
71194;BME280;58903;47.210;8.618;2023-06-10T04:11:24;93859.19;;;29.64;32.22
71194;BME280;58903;47.210;8.618;2023-06-10T04:13:52;93863.44;;;29.65;32.78
71194;BME280;58903;47.210;8.618;2023-06-10T04:16:27;93861.22;;;29.63;32.42
71194;BME280;58903;47.210;8.618;2023-06-10T04:19:12;93858.44;;;29.63;32.46
71194;BME280;58903;47.210;8.618;2023-06-10T04:21:44;93865.47;;;29.64;31.97
71194;BME280;58903;47.210;8.618;2023-06-10T04:24:20;93866.00;;;29.63;32.36
71194;BME280;58903;47.210;8.618;2023-06-10T04:26:47;93874.31;;;29.63;32.22
71194;BME280;58903;47.210;8.618;2023-06-10T04:29:17;93870.81;;;29.62;32.22
71194;BME280;58903;47.210;8.618;2023-06-10T04:32:00;93867.31;;;29.62;32.30
71194;BME280;58903;47.210;8.618;2023-06-10T04:34:30;93874.13;;;29.61;32.81
71194;BME280;58903;47.210;8.618;2023-06-10T04:36:56;93876.16;;;29.60;32.29
71194;BME280;58903;47.210;8.618;2023-06-10T04:39:24;93872.47;;;29.58;32.69
71194;BME280;58903;47.210;8.618;2023-06-10T04:41:50;93874.69;;;29.59;32.16
71194;BME280;58903;47.210;8.618;2023-06-10T04:44:18;93876.16;;;29.60;32.64
71194;BME280;58903;47.210;8.618;2023-06-10T04:46:45;93875.44;;;29.60;32.33
71194;BME280;58903;47.210;8.618;2023-06-10T04:49:11;93878.22;;;29.60;32.40
71194;BME280;58903;47.210;8.618;2023-06-10T04:51:52;93877.47;;;29.59;32.38
71194;BME280;58903;47.210;8.618;2023-06-10T04:54:19;93879.50;;;29.59;32.39
71194;BME280;58903;47.210;8.618;2023-06-10T04:56:48;93878.75;;;29.58;32.93
71194;BME280;58903;47.210;8.618;2023-06-10T04:59:43;93887.81;;;29.59;32.80
71194;BME280;58903;47.210;8.618;2023-06-10T05:02:09;93885.41;;;29.55;32.93
71194;BME280;58903;47.210;8.618;2023-06-10T05:04:46;93886.34;;;29.58;33.03
71194;BME280;58903;47.210;8.618;2023-06-10T05:07:12;93889.84;;;29.58;32.28
71194;BME280;58903;47.210;8.618;2023-06-10T05:09:57;93902.41;;;29.59;32.62
71194;BME280;58903;47.210;8.618;2023-06-10T05:12:22;93897.44;;;29.58;33.36
71194;BME280;58903;47.210;8.618;2023-06-10T05:14:55;93897.63;;;29.60;33.62
71194;BME280;58903;47.210;8.618;2023-06-10T05:17:35;93895.56;;;29.60;33.25
71194;BME280;58903;47.210;8.618;2023-06-10T05:20:34;93906.84;;;29.62;32.84
71194;BME280;58903;47.210;8.618;2023-06-10T05:23:19;93901.28;;;29.62;32.78
71194;BME280;58903;47.210;8.618;2023-06-10T05:25:52;93900.56;;;29.62;33.53
71194;BME280;58903;47.210;8.618;2023-06-10T05:28:29;93903.88;;;29.60;33.59
71194;BME280;58903;47.210;8.618;2023-06-10T05:31:08;93901.66;;;29.59;33.17
71194;BME280;58903;47.210;8.618;2023-06-10T05:33:37;93903.88;;;29.60;32.71
71194;BME280;58903;47.210;8.618;2023-06-10T05:36:11;93909.41;;;29.60;33.72
71194;BME280;58903;47.210;8.618;2023-06-10T05:38:37;93909.22;;;29.58;33.77
71194;BME280;58903;47.210;8.618;2023-06-10T05:41:03;93917.72;;;29.60;33.05
71194;BME280;58903;47.210;8.618;2023-06-10T05:43:29;93908.16;;;29.61;33.04
71194;BME280;58903;47.210;8.618;2023-06-10T05:45:57;93912.03;;;29.66;32.79
71194;BME280;58903;47.210;8.618;2023-06-10T05:48:34;93912.03;;;29.66;33.42
71194;BME280;58903;47.210;8.618;2023-06-10T05:51:13;93915.00;;;29.68;33.44
71194;BME280;58903;47.210;8.618;2023-06-10T05:53:47;93909.66;;;29.70;33.73
71194;BME280;58903;47.210;8.618;2023-06-10T05:56:15;93908.38;;;29.71;32.58
71194;BME280;58903;47.210;8.618;2023-06-10T05:58:41;93918.16;;;29.72;33.31
71194;BME280;58903;47.210;8.618;2023-06-10T06:01:07;93915.94;;;29.70;33.06
71194;BME280;58903;47.210;8.618;2023-06-10T06:03:33;93916.69;;;29.71;33.15
71194;BME280;58903;47.210;8.618;2023-06-10T06:05:59;93918.91;;;29.72;33.37
71194;BME280;58903;47.210;8.618;2023-06-10T06:08:28;93918.91;;;29.72;33.05
71194;BME280;58903;47.210;8.618;2023-06-10T06:11:06;93912.41;;;29.70;33.39
71194;BME280;58903;47.210;8.618;2023-06-10T06:13:38;93918.72;;;29.70;33.59
71194;BME280;58903;47.210;8.618;2023-06-10T06:16:06;93922.41;;;29.73;33.14
71194;BME280;58903;47.210;8.618;2023-06-10T06:18:48;93917.09;;;29.75;33.11
71194;BME280;58903;47.210;8.618;2023-06-10T06:21:15;93918.56;;;29.76;33.15
71194;BME280;58903;47.210;8.618;2023-06-10T06:23:49;93916.34;;;29.74;33.25
71194;BME280;58903;47.210;8.618;2023-06-10T06:26:15;93917.09;;;29.75;33.50
71194;BME280;58903;47.210;8.618;2023-06-10T06:28:57;93918.75;;;29.78;33.90
71194;BME280;58903;47.210;8.618;2023-06-10T06:31:35;93918.56;;;29.76;32.97
71194;BME280;58903;47.210;8.618;2023-06-10T06:34:13;93912.81;;;29.74;33.70
71194;BME280;58903;47.210;8.618;2023-06-10T06:36:40;93917.28;;;29.77;32.87
71194;BME280;58903;47.210;8.618;2023-06-10T06:39:13;93921.53;;;29.78;33.88
71194;BME280;58903;47.210;8.618;2023-06-10T06:41:45;93914.69;;;29.79;33.33
71194;BME280;58903;47.210;8.618;2023-06-10T06:44:41;93921.00;;;29.79;33.04
71194;BME280;58903;47.210;8.618;2023-06-10T06:47:09;93920.25;;;29.79;34.30
71194;BME280;58903;47.210;8.618;2023-06-10T06:49:40;93913.94;;;29.78;33.02
71194;BME280;58903;47.210;8.618;2023-06-10T06:52:20;93910.44;;;29.78;33.84
71194;BME280;58903;47.210;8.618;2023-06-10T06:54:48;93913.41;;;29.80;33.27
71194;BME280;58903;47.210;8.618;2023-06-10T06:57:15;93912.13;;;29.81;33.47
71194;BME280;58903;47.210;8.618;2023-06-10T06:59:48;93917.09;;;29.83;34.15
71194;BME280;58903;47.210;8.618;2023-06-10T07:02:43;93911.56;;;29.83;33.62
71194;BME280;58903;47.210;8.618;2023-06-10T07:05:40;93916.34;;;29.82;32.86
71194;BME280;58903;47.210;8.618;2023-06-10T07:08:08;93907.84;;;29.80;33.00
71194;BME280;58903;47.210;8.618;2023-06-10T07:11:07;93916.34;;;29.82;33.08
71194;BME280;58903;47.210;8.618;2023-06-10T07:13:46;93911.38;;;29.80;32.96
71194;BME280;58903;47.210;8.618;2023-06-10T07:16:25;93908.78;;;29.83;33.04
71194;BME280;58903;47.210;8.618;2023-06-10T07:19:01;93915.81;;;29.84;33.25
71194;BME280;58903;47.210;8.618;2023-06-10T07:21:39;93910.47;;;29.86;33.76
71194;BME280;58903;47.210;8.618;2023-06-10T07:24:39;93915.25;;;29.85;33.81
71194;BME280;58903;47.210;8.618;2023-06-10T07:27:13;93919.31;;;29.84;33.89
71194;BME280;58903;47.210;8.618;2023-06-10T07:29:59;93917.28;;;29.85;33.20
71194;BME280;58903;47.210;8.618;2023-06-10T07:32:35;93919.31;;;29.84;33.58
71194;BME280;58903;47.210;8.618;2023-06-10T07:35:16;93915.25;;;29.85;33.53
71194;BME280;58903;47.210;8.618;2023-06-10T07:37:51;93925.41;;;29.83;33.60
71194;BME280;58903;47.210;8.618;2023-06-10T07:40:28;93922.84;;;29.85;33.59
71194;BME280;58903;47.210;8.618;2023-06-10T07:43:09;93929.13;;;29.85;34.11
71194;BME280;58903;47.210;8.618;2023-06-10T07:45:35;93927.63;;;29.84;35.09
71194;BME280;58903;47.210;8.618;2023-06-10T07:48:02;93920.06;;;29.85;34.42
71194;BME280;58903;47.210;8.618;2023-06-10T07:50:28;93920.81;;;29.85;35.20
71194;BME280;58903;47.210;8.618;2023-06-10T07:53:04;93926.53;;;29.87;33.85
71194;BME280;58903;47.210;8.618;2023-06-10T07:55:38;93925.25;;;29.88;33.95
71194;BME280;58903;47.210;8.618;2023-06-10T07:58:12;93928.22;;;29.90;33.55
71194;BME280;58903;47.210;8.618;2023-06-10T08:04:03;93929.31;;;29.87;34.37
71194;BME280;58903;47.210;8.618;2023-06-10T08:07:07;93926.34;;;29.85;34.28
71194;BME280;58903;47.210;8.618;2023-06-10T08:09:53;93931.19;;;29.92;34.46
71194;BME280;58903;47.210;8.618;2023-06-10T08:12:19;93928.41;;;29.92;33.71
71194;BME280;58903;47.210;8.618;2023-06-10T08:18:06;93938.00;;;29.91;34.37
71194;BME280;58903;47.210;8.618;2023-06-10T08:20:46;93931.00;;;29.90;34.60
71194;BME280;58903;47.210;8.618;2023-06-10T08:23:14;93924.91;;;29.92;34.76
71194;BME280;58903;47.210;8.618;2023-06-10T08:25:49;93921.75;;;29.95;33.64
71194;BME280;58903;47.210;8.618;2023-06-10T08:28:23;93924.00;;;29.97;34.89
71194;BME280;58903;47.210;8.618;2023-06-10T08:30:59;93923.25;;;29.96;34.06
71194;BME280;58903;47.210;8.618;2023-06-10T08:33:25;93922.16;;;29.99;34.33
71194;BME280;58903;47.210;8.618;2023-06-10T08:35:54;93922.69;;;29.98;34.08
71194;BME280;58903;47.210;8.618;2023-06-10T08:38:26;93920.66;;;29.98;34.65
71194;BME280;58903;47.210;8.618;2023-06-10T08:41:05;93921.75;;;29.95;34.20
71194;BME280;58903;47.210;8.618;2023-06-10T08:46:37;93912.53;;;30.00;34.86
71194;BME280;58903;47.210;8.618;2023-06-10T08:49:19;93916.59;;;29.99;34.42
71194;BME280;58903;47.210;8.618;2023-06-10T08:51:55;93920.47;;;30.04;34.54
71194;BME280;58903;47.210;8.618;2023-06-10T08:54:32;93922.72;;;30.05;34.16
71194;BME280;58903;47.210;8.618;2023-06-10T08:57:06;93926.97;;;30.06;33.98
71194;BME280;58903;47.210;8.618;2023-06-10T08:59:33;93921.41;;;30.06;33.76
71194;BME280;58903;47.210;8.618;2023-06-10T09:02:02;93917.34;;;30.07;34.38
71194;BME280;58903;47.210;8.618;2023-06-10T09:04:33;93917.34;;;30.07;34.81
71194;BME280;58903;47.210;8.618;2023-06-10T09:07:10;93922.91;;;30.07;33.57
71194;BME280;58903;47.210;8.618;2023-06-10T09:09:44;93913.84;;;30.07;33.91
71194;BME280;58903;47.210;8.618;2023-06-10T09:12:15;93920.31;;;30.09;33.88
71194;BME280;58903;47.210;8.618;2023-06-10T09:18:36;93919.22;;;30.12;34.65
71194;BME280;58903;47.210;8.618;2023-06-10T09:21:03;93917.72;;;30.11;34.15
71194;BME280;58903;47.210;8.618;2023-06-10T09:23:30;93919.22;;;30.12;34.35
71194;BME280;58903;47.210;8.618;2023-06-10T09:26:01;93916.44;;;30.12;33.61
71194;BME280;58903;47.210;8.618;2023-06-10T09:28:42;93920.13;;;30.15;34.58
71194;BME280;58903;47.210;8.618;2023-06-10T09:31:10;93914.56;;;30.15;33.46
71194;BME280;58903;47.210;8.618;2023-06-10T09:33:47;93914.03;;;30.16;34.47
71194;BME280;58903;47.210;8.618;2023-06-10T09:36:22;93918.28;;;30.17;34.21
71194;BME280;58903;47.210;8.618;2023-06-10T09:38:50;93915.50;;;30.17;33.93
71194;BME280;58903;47.210;8.618;2023-06-10T09:41:40;93912.75;;;30.17;33.43
71194;BME280;58903;47.210;8.618;2023-06-10T09:44:22;93917.00;;;30.18;33.83
71194;BME280;58903;47.210;8.618;2023-06-10T09:46:50;93909.44;;;30.19;33.92
71194;BME280;58903;47.210;8.618;2023-06-10T09:49:30;93911.47;;;30.18;33.50
71194;BME280;58903;47.210;8.618;2023-06-10T09:51:58;93910.72;;;30.18;33.60
71194;BME280;58903;47.210;8.618;2023-06-10T09:54:31;93910.91;;;30.20;33.90
71194;BME280;58903;47.210;8.618;2023-06-10T09:57:07;93910.16;;;30.19;33.87
71194;BME280;58903;47.210;8.618;2023-06-10T10:00:10;93915.16;;;30.21;34.11
71194;BME280;58903;47.210;8.618;2023-06-10T10:02:53;93916.63;;;30.22;34.04
71194;BME280;58903;47.210;8.618;2023-06-10T10:08:32;93908.31;;;30.22;34.18
71194;BME280;58903;47.210;8.618;2023-06-10T10:11:10;93911.09;;;30.22;34.08
71194;BME280;58903;47.210;8.618;2023-06-10T10:13:38;93903.31;;;30.20;33.57
71194;BME280;58903;47.210;8.618;2023-06-10T10:16:30;93912.56;;;30.23;34.01
71194;BME280;58903;47.210;8.618;2023-06-10T10:19:15;93904.97;;;30.23;34.50
71194;BME280;58903;47.210;8.618;2023-06-10T10:22:15;93902.19;;;30.23;34.42
71194;BME280;58903;47.210;8.618;2023-06-10T10:24:53;93896.47;;;30.21;34.11
71194;BME280;58903;47.210;8.618;2023-06-10T10:27:36;93897.41;;;30.24;34.05
71194;BME280;58903;47.210;8.618;2023-06-10T10:30:07;93903.69;;;30.24;33.87
71194;BME280;58903;47.210;8.618;2023-06-10T10:32:43;93893.16;;;30.23;33.50
71194;BME280;58903;47.210;8.618;2023-06-10T10:35:21;93897.03;;;30.27;33.85
71194;BME280;58903;47.210;8.618;2023-06-10T10:38:13;93898.50;;;30.28;34.12
71194;BME280;58903;47.210;8.618;2023-06-10T10:40:52;93898.50;;;30.28;33.39
71194;BME280;58903;47.210;8.618;2023-06-10T10:43:24;93899.25;;;30.29;34.28
71194;BME280;58903;47.210;8.618;2023-06-10T10:46:08;93903.50;;;30.30;33.76
71194;BME280;58903;47.210;8.618;2023-06-10T10:48:38;93903.75;;;30.32;34.13
71194;BME280;58903;47.210;8.618;2023-06-10T10:51:10;93901.69;;;30.32;33.97
71194;BME280;58903;47.210;8.618;2023-06-10T10:53:39;93894.09;;;30.33;33.73
71194;BME280;58903;47.210;8.618;2023-06-10T10:56:08;93894.84;;;30.33;34.12
71194;BME280;58903;47.210;8.618;2023-06-10T10:58:34;93884.50;;;30.34;33.89
71194;BME280;58903;47.210;8.618;2023-06-10T11:01:13;93888.94;;;30.37;34.25
71194;BME280;58903;47.210;8.618;2023-06-10T11:03:44;93897.81;;;30.35;33.37
71194;BME280;58903;47.210;8.618;2023-06-10T11:06:18;93897.44;;;30.39;33.42
71194;BME280;58903;47.210;8.618;2023-06-10T11:11:26;93896.69;;;30.38;33.29
71194;BME280;58903;47.210;8.618;2023-06-10T11:16:39;93890.78;;;30.42;34.06
71194;BME280;58903;47.210;8.618;2023-06-10T11:19:06;93874.88;;;30.42;33.32
71194;BME280;58903;47.210;8.618;2023-06-10T11:22:07;93891.72;;;30.44;34.14
71194;BME280;58903;47.210;8.618;2023-06-10T11:24:35;93888.94;;;30.44;34.32
71194;BME280;58903;47.210;8.618;2023-06-10T11:30:34;93890.59;;;30.47;33.57
71194;BME280;58903;47.210;8.618;2023-06-10T11:33:31;93884.84;;;30.45;34.14
71194;BME280;58903;47.210;8.618;2023-06-10T11:36:20;93893.91;;;30.46;34.10
71194;BME280;58903;47.210;8.618;2023-06-10T11:39:06;93889.13;;;30.46;34.11
71194;BME280;58903;47.210;8.618;2023-06-10T11:41:33;93883.38;;;30.44;33.96
71194;BME280;58903;47.210;8.618;2023-06-10T11:44:08;93880.22;;;30.48;34.43
71194;BME280;58903;47.210;8.618;2023-06-10T11:46:51;93868.56;;;30.49;33.85
71194;BME280;58903;47.210;8.618;2023-06-10T11:52:41;93872.09;;;30.58;34.71
71194;BME280;58903;47.210;8.618;2023-06-10T11:55:09;93862.28;;;30.57;34.29
71194;BME280;58903;47.210;8.618;2023-06-10T11:57:37;93866.91;;;30.62;34.79
71194;BME280;58903;47.210;8.618;2023-06-10T12:00:35;93871.88;;;30.63;33.93
71194;BME280;58903;47.210;8.618;2023-06-10T12:03:20;93872.47;;;30.62;34.76
71194;BME280;58903;47.210;8.618;2023-06-10T12:08:27;93870.78;;;30.59;34.44
71194;BME280;58903;47.210;8.618;2023-06-10T12:11:03;93860.44;;;30.59;34.62
71194;BME280;58903;47.210;8.618;2023-06-10T12:13:33;93858.41;;;30.60;33.70
71194;BME280;58903;47.210;8.618;2023-06-10T12:16:33;93866.72;;;30.60;34.14
71194;BME280;58903;47.210;8.618;2023-06-10T12:19:18;93860.78;;;30.63;33.06
71194;BME280;58903;47.210;8.618;2023-06-10T12:22:01;93858.41;;;30.60;34.14
71194;BME280;58903;47.210;8.618;2023-06-10T12:24:59;93857.84;;;30.61;33.13
71194;BME280;58903;47.210;8.618;2023-06-10T12:28:02;93857.66;;;30.59;32.94
71194;BME280;58903;47.210;8.618;2023-06-10T12:30:31;93856.91;;;30.59;32.59
71194;BME280;58903;47.210;8.618;2023-06-10T12:33:00;93864.31;;;30.56;32.83
71194;BME280;58903;47.210;8.618;2023-06-10T12:35:27;93852.47;;;30.56;32.75
71194;BME280;58903;47.210;8.618;2023-06-10T12:40:48;93848.41;;;30.57;32.68
71194;BME280;58903;47.210;8.618;2023-06-10T12:43:37;93851.34;;;30.59;33.27
71194;BME280;58903;47.210;8.618;2023-06-10T12:46:09;93840.44;;;30.61;32.37
71194;BME280;58903;47.210;8.618;2023-06-10T12:48:35;93843.78;;;30.59;32.98
71194;BME280;58903;47.210;8.618;2023-06-10T12:51:13;93844.53;;;30.60;33.00
71194;BME280;58903;47.210;8.618;2023-06-10T12:53:52;93838.03;;;30.57;32.37
71194;BME280;58903;47.210;8.618;2023-06-10T12:56:19;93838.03;;;30.57;32.89
71194;BME280;58903;47.210;8.618;2023-06-10T12:58:54;93838.22;;;30.59;33.16
71194;BME280;58903;47.210;8.618;2023-06-10T13:01:23;93831.00;;;30.56;33.07
71194;BME280;58903;47.210;8.618;2023-06-10T13:03:59;93842.84;;;30.57;31.88
71194;BME280;58903;47.210;8.618;2023-06-10T13:06:46;93836.19;;;30.60;33.20
71194;BME280;58903;47.210;8.618;2023-06-10T13:09:42;93823.78;;;30.61;32.56
71194;BME280;58903;47.210;8.618;2023-06-10T13:12:14;93826.38;;;30.59;32.54
71194;BME280;58903;47.210;8.618;2023-06-10T13:14:53;93826.38;;;30.59;32.14
71194;BME280;58903;47.210;8.618;2023-06-10T13:17:40;93821.94;;;30.56;33.06
71194;BME280;58903;47.210;8.618;2023-06-10T13:20:15;93820.81;;;30.59;32.71
71194;BME280;58903;47.210;8.618;2023-06-10T13:22:55;93821.00;;;30.61;32.13
71194;BME280;58903;47.210;8.618;2023-06-10T13:25:30;93818.97;;;30.61;32.33
71194;BME280;58903;47.210;8.618;2023-06-10T13:27:56;93818.97;;;30.61;32.37
71194;BME280;58903;47.210;8.618;2023-06-10T13:30:32;93809.91;;;30.61;33.27
71194;BME280;58903;47.210;8.618;2023-06-10T13:32:58;93808.78;;;30.64;33.13
71194;BME280;58903;47.210;8.618;2023-06-10T13:35:29;93808.78;;;30.64;32.99
71194;BME280;58903;47.210;8.618;2023-06-10T13:37:56;93813.59;;;30.63;32.58
71194;BME280;58903;47.210;8.618;2023-06-10T13:40:58;93805.28;;;30.63;32.80
71194;BME280;58903;47.210;8.618;2023-06-10T13:43:39;93809.19;;;30.60;32.56
71194;BME280;58903;47.210;8.618;2023-06-10T13:46:23;93804.56;;;30.55;33.59
71194;BME280;58903;47.210;8.618;2023-06-10T13:48:49;93798.25;;;30.54;33.21
71194;BME280;58903;47.210;8.618;2023-06-10T13:51:23;93802.53;;;30.56;32.73
71194;BME280;58903;47.210;8.618;2023-06-10T13:53:50;93802.34;;;30.53;33.62
71194;BME280;58903;47.210;8.618;2023-06-10T13:56:18;93796.97;;;30.56;32.96
71194;BME280;58903;47.210;8.618;2023-06-10T13:58:46;93791.41;;;30.56;33.10
71194;BME280;58903;47.210;8.618;2023-06-10T14:01:16;93792.53;;;30.52;32.92
71194;BME280;58903;47.210;8.618;2023-06-10T14:03:59;93788.63;;;30.56;33.95
71194;BME280;58903;47.210;8.618;2023-06-10T14:06:28;93787.72;;;30.53;32.95
71194;BME280;58903;47.210;8.618;2023-06-10T14:09:03;93783.28;;;30.58;33.33
71194;BME280;58903;47.210;8.618;2023-06-10T14:12:02;93784.91;;;30.61;33.27
71194;BME280;58903;47.210;8.618;2023-06-10T14:14:45;93783.63;;;30.62;33.62
71194;BME280;58903;47.210;8.618;2023-06-10T14:17:30;93782.31;;;30.63;33.81
71194;BME280;58903;47.210;8.618;2023-06-10T14:19:58;93785.66;;;30.61;33.72
71194;BME280;58903;47.210;8.618;2023-06-10T14:22:33;93778.25;;;30.64;33.21
71194;BME280;58903;47.210;8.618;2023-06-10T14:25:04;93782.31;;;30.63;33.51